KQ6QV Weather Reports


Display with metric or nautical units.
time (UTC)temp
F
wind
direction
speed
MPH
gust
MPH
rain 1hr
in
rain 24hr
in
rain mn
in
humidity
%
barometer
mb
20190319204826 69 240 3.0 7.0 0.00 0.00 0.00 10 1011.4
20190319201637 69 232 5.0 7.0 0.00 0.00 0.00 10 1011.5
20190319193029 67 235 4.0 6.0 0.00 0.00 0.00 10 1012.4
20190319190306 67 233 3.0 6.0 0.00 0.00 0.00 10 1012.4
20190319184554 66 231 4.0 7.0 0.00 0.00 0.00 10 1012.4
20190319183121 66 234 4.0 7.0 0.00 0.00 0.00 10 1012.4
20190319180330 65 234 1.0 5.0 0.00 0.00 0.00 10 1012.4
20190319174745 64 232 2.0 5.0 0.00 0.00 0.00 10 1013.4
20190319173148 63 234 3.0 6.0 0.00 0.00 0.00 17 1013.4
20190319170313 59 231 4.0 10.0 0.00 0.00 0.00 33 1013.4
20190319164727 58 233 3.0 7.0 0.00 0.00 0.00 43 1013.4
20190319154836 51 250 0.0 4.0 0.00 0.00 0.00 67 1013.4
20190319144658 48 248 4.0 7.0 0.00 0.00 0.00 67 1013.4
20190319143100 48 266 3.0 4.0 0.00 0.00 0.00 67 1013.4
20190319141724 47 261 4.0 4.0 0.00 0.00 0.00 67 1013.4
20190319140117 47 256 4.0 5.0 0.00 0.00 0.00 67 1013.4
20190319134810 47 258 4.0 6.0 0.00 0.00 0.00 67 1013.4
20190319133335 47 255 3.0 6.0 0.00 0.00 0.00 66 1013.4
20190319131647 47 242 4.0 6.0 0.00 0.00 0.00 66 1013.4
20190319130211 46 245 5.0 6.0 0.00 0.00 0.00 65 1013.4
20190319124535 47 259 4.0 7.0 0.00 0.00 0.00 64 1012.4
20190319123227 47 258 5.0 6.0 0.00 0.00 0.00 64 1013.4
20190319121721 46 244 4.0 6.0 0.00 0.00 0.00 63 1013.4
20190319120349 47 256 3.0 4.0 0.00 0.00 0.00 62 1013.4
20190319114639 47 256 4.0 5.0 0.00 0.00 0.00 61 1013.4
20190319113306 47 257 5.0 6.0 0.00 0.00 0.00 61 1013.4
20190319110034 48 248 3.0 5.0 0.00 0.00 0.00 59 1013.4
20190319101825 51 258 2.0 5.0 0.00 0.00 0.00 57 1013.4
20190319100056 51 255 3.0 4.0 0.00 0.00 0.00 56 1014.4
20190319091814 50 254 2.0 5.0 0.00 0.00 0.00 50 1014.4
20190319090129 50 0.0 0.0 0.00 0.00 0.00 49 1014.4
20190319083131 51 253 0.0 0.0 0.00 0.00 0.00 46 1014.4
20190319081826 51 0.0 0.0 0.00 0.00 0.00 44 1014.4
20190319071551 52 236 3.0 4.0 0.00 0.00 0.00 37 1015.5
20190319070350 53 236 2.0 3.0 0.00 0.00 0.00 36 1015.5
20190319064630 53 236 3.0 3.0 0.00 0.00 0.00 36 1015.5
20190319061645 53 264 2.0 5.0 0.00 0.00 0.00 36 1015.5
20190319060046 53 239 5.0 6.0 0.00 0.00 0.00 34 1015.5
20190319054827 54 238 4.0 5.0 0.00 0.00 0.00 30 1015.5
20190319051816 57 269 3.0 5.0 0.00 0.00 0.00 17 1015.5
20190319050213 58 244 4.0 5.0 0.00 0.00 0.00 12 1015.5
20190319041648 61 254 4.0 4.0 0.00 0.00 0.00 10 1014.4
20190319040328 61 237 6.0 7.0 0.00 0.00 0.00 11 1014.4
20190319034745 60 236 6.0 8.0 0.00 0.00 0.00 20 1014.4
20190319030328 61 238 6.0 8.0 0.00 0.00 0.00 25 1014.4
20190319024855 62 228 2.0 5.0 0.00 0.00 0.00 19 1014.4
20190319023309 63 244 4.0 5.0 0.00 0.00 0.00 13 1013.4
20190319021550 65 235 4.0 7.0 0.00 0.00 0.00 10 1014.4
20190319014834 70 236 1.0 4.0 0.00 0.00 0.00 10 1013.4
20190319013132 71 228 3.0 6.0 0.00 0.00 0.00 10 1013.4
20190319011708 72 227 5.0 8.0 0.00 0.00 0.00 10 1013.4
20190319010031 72 227 5.0 8.0 0.00 0.00 0.00 10 1013.4
20190319004831 72 234 4.0 8.0 0.00 0.00 0.00 10 1013.4
20190319003340 73 230 4.0 7.0 0.00 0.00 0.00 10 1013.4
20190319001850 73 232 5.0 10.0 0.00 0.00 0.00 10 1013.4
20190319000301 73 229 4.0 8.0 0.00 0.00 0.00 10 1013.4
20190318234832 73 232 4.0 8.0 0.00 0.00 0.00 10 1013.4
20190318233323 74 231 4.0 8.0 0.00 0.00 0.00 10 1014.4
20190318230339 75 232 6.0 10.0 0.00 0.00 0.00 10 1013.4
20190318224548 75 233 5.0 11.0 0.00 0.00 0.00 10 1014.4
20190318221537 76 234 4.0 10.0 0.00 0.00 0.00 10 1014.4
20190318220236 76 231 5.0 11.0 0.00 0.00 0.00 10 1014.4
20190318213248 76 229 6.0 13.0 0.00 0.00 0.00 10 1014.4
20190318211805 76 233 6.0 10.0 0.00 0.00 0.00 10 1014.4
20190318210245 75 235 4.0 14.0 0.00 0.00 0.00 10 1014.4